Allingtown, Connecticut
Current Conditions -  °F | °C
As of 8:53 PM on Monday 20 Oct 2014 (Local Time) from KHVN Reporting Station
Broken Clouds Broken Clouds  
Wind Chill: 61°   Ceiling: 25000
Heat Index: 61°   Visibility: 10mi
Dew Point: 43°   Wind: 8mph
Humidity: 52%   Direction: 220°SW
Pressure: 30"   Gusts: 17mph
Location:  41.2716°N, 72.9666°W
Report Text: KHVN 210053Z 22007G15KT 10SM SCT140 BKN250 16/06 A3000 RMK AO2 SLP157 T01610061
Loading
Personal Weather Stations






























Interactive Weather Map
Tropical Storm Tracking
New forecast layout! Learn more

10-Day Weather Forecast

Advertisements
Track Severe Weather on mobile